Time;durP1;ratioP1;P1;durP2;ratioP2;P2;SDS_P1;SDS_P2;PMS_P1;PMS_P2;Temp;Humidity;BMP_temperature;BMP_pressure;BME280_temperature;BME280_humidity;BME280_pressure;Samples;Min_cycle;Max_cycle;Signal;HPM_P1;HPM_P2
2023/11/24 00:01:50;;;;;;;13.70;8.80;;;;;;;1.42;100.00;98538.98;109489;1253;66935;-57
2023/11/24 00:04:17;;;;;;;15.10;9.60;;;;;;;1.42;100.00;98527.41;109394;1253;72728;-57
2023/11/24 00:06:46;;;;;;;15.40;9.70;;;;;;;1.43;100.00;98522.61;109393;1251;61938;-56
2023/11/24 00:09:13;;;;;;;14.10;9.00;;;;;;;1.43;100.00;98518.76;109479;1250;59182;-55
2023/11/24 00:11:42;;;;;;;14.30;8.40;;;;;;;1.44;100.00;98510.52;109468;1250;74641;-55
2023/11/24 00:14:10;;;;;;;17.30;9.30;;;;;;;1.44;100.00;98506.06;109464;1253;66967;-58
2023/11/24 00:16:40;;;;;;;13.00;7.80;;;;;;;1.44;100.00;98505.69;109444;1250;71443;-55
2023/11/24 00:19:10;;;;;;;12.30;8.40;;;;;;;1.45;100.00;98503.58;109433;1251;60975;-55
2023/11/24 00:21:39;;;;;;;15.30;9.00;;;;;;;1.45;100.00;98494.49;109489;1250;59103;-56
2023/11/24 00:24:07;;;;;;;17.00;8.40;;;;;;;1.45;100.00;98494.58;109405;1253;73928;-58
2023/11/24 00:26:35;;;;;;;14.30;8.50;;;;;;;1.45;100.00;98492.02;109459;1250;66046;-57
2023/11/24 00:29:03;;;;;;;13.30;8.50;;;;;;;1.45;100.00;98481.30;109451;1250;72729;-57
2023/11/24 00:31:31;;;;;;;12.50;8.20;;;;;;;1.46;100.00;98476.89;109460;1251;59668;-58
2023/11/24 00:34:00;;;;;;;11.90;7.70;;;;;;;1.46;100.00;98467.61;109416;1253;59520;-59
2023/11/24 00:36:28;;;;;;;11.30;7.40;;;;;;;1.47;100.00;98460.86;109466;1250;74677;-58
2023/11/24 00:38:56;;;;;;;13.00;8.30;;;;;;;1.48;100.00;98458.21;109301;1252;67003;-58
2023/11/24 00:41:23;;;;;;;10.70;6.90;;;;;;;1.48;100.00;98454.81;109446;1251;72394;-58
2023/11/24 00:43:51;;;;;;;12.20;6.70;;;;;;;1.49;100.00;98447.96;109445;1252;60825;-58
2023/11/24 00:46:18;;;;;;;12.20;7.30;;;;;;;1.50;100.00;98447.89;109454;1256;59449;-58
2023/11/24 00:48:47;;;;;;;11.40;6.80;;;;;;;1.51;100.00;98448.49;109489;1251;74636;-57
2023/11/24 00:51:14;;;;;;;11.80;7.50;;;;;;;1.51;100.00;98445.18;109509;1251;65217;-57
2023/11/24 00:53:42;;;;;;;12.20;7.40;;;;;;;1.52;100.00;98443.36;109503;1250;71478;-58
2023/11/24 00:56:10;;;;;;;13.40;7.60;;;;;;;1.53;100.00;98441.68;109445;1252;59532;-57
2023/11/24 00:58:37;;;;;;;11.80;8.10;;;;;;;1.55;100.00;98432.60;109550;1251;60287;-57
2023/11/24 01:01:09;;;;;;;12.00;7.00;;;;;;;1.56;100.00;98431.33;109435;1251;74742;-57
2023/11/24 01:03:39;;;;;;;12.30;7.60;;;;;;;1.57;100.00;98422.27;109438;1250;65785;-59
2023/11/24 01:06:08;;;;;;;13.30;8.70;;;;;;;1.59;100.00;98414.90;109459;1251;71657;-56
2023/11/24 01:08:35;;;;;;;15.10;9.30;;;;;;;1.61;100.00;98407.60;109447;1250;59559;-57
2023/11/24 01:11:03;;;;;;;12.80;8.50;;;;;;;1.63;100.00;98399.33;109524;1250;60235;-55
2023/11/24 01:13:32;;;;;;;13.60;8.40;;;;;;;1.65;100.00;98395.98;109437;1251;74732;-56
2023/11/24 01:16:02;;;;;;;13.40;8.40;;;;;;;1.67;100.00;98388.95;109433;1251;66959;-56
2023/11/24 01:18:30;;;;;;;15.30;9.20;;;;;;;1.68;100.00;98384.61;109480;1253;71483;-56
2023/11/24 01:20:58;;;;;;;14.70;9.40;;;;;;;1.67;100.00;98375.20;109414;1253;60980;-56
2023/11/24 01:23:27;;;;;;;13.60;9.10;;;;;;;1.67;100.00;98366.31;109414;1252;58848;-58
2023/11/24 01:25:54;;;;;;;13.60;8.30;;;;;;;1.67;100.00;98363.58;109455;1251;73663;-56
2023/11/24 01:28:22;;;;;;;13.90;9.20;;;;;;;1.67;100.00;98361.34;109404;1250;67045;-56
2023/11/24 01:30:50;;;;;;;14.70;8.90;;;;;;;1.68;100.00;98356.45;109440;1251;72752;-57
2023/11/24 01:33:21;;;;;;;14.80;9.70;;;;;;;1.68;100.00;98350.95;109418;1253;59649;-58
2023/11/24 01:35:49;;;;;;;14.30;8.90;;;;;;;1.70;100.00;98346.67;109380;1251;59719;-57
2023/11/24 01:38:17;;;;;;;16.80;10.20;;;;;;;1.70;100.00;98339.10;109447;1251;74761;-58
2023/11/24 01:40:44;;;;;;;13.60;8.20;;;;;;;1.71;100.00;98336.59;109262;1251;66242;-58
2023/11/24 01:43:12;;;;;;;14.50;9.40;;;;;;;1.72;100.00;98324.17;109384;1252;74783;-59
2023/11/24 01:45:39;;;;;;;14.60;8.20;;;;;;;1.72;100.00;98312.37;109430;1252;60548;-59
2023/11/24 01:48:08;;;;;;;17.00;10.50;;;;;;;1.73;100.00;98313.12;109451;1251;58952;-58
2023/11/24 01:50:36;;;;;;;14.10;9.60;;;;;;;1.75;100.00;98312.48;109453;1251;74738;-59
2023/11/24 01:53:04;;;;;;;14.30;9.20;;;;;;;1.75;100.00;98307.55;109289;1253;65624;-60
2023/11/24 01:55:32;;;;;;;16.90;10.10;;;;;;;1.77;100.00;98309.04;109298;1253;73692;-60
2023/11/24 01:57:59;;;;;;;16.40;11.20;;;;;;;1.79;100.00;98306.98;109394;1251;60281;-60
2023/11/24 02:00:27;;;;;;;14.90;9.90;;;;;;;1.79;100.00;98301.26;109412;1251;60047;-59
2023/11/24 02:02:57;;;;;;;15.30;9.80;;;;;;;1.81;100.00;98296.52;109471;1251;74693;-59
2023/11/24 02:05:25;;;;;;;14.70;10.50;;;;;;;1.80;100.00;98292.80;109241;1251;67070;-59
2023/11/24 02:07:52;;;;;;;16.80;10.60;;;;;;;1.81;100.00;98288.61;109393;1251;73236;-60
2023/11/24 02:10:20;;;;;;;18.10;10.90;;;;;;;1.83;100.00;98294.87;109428;1251;59634;-60
2023/11/24 02:12:47;;;;;;;17.10;11.10;;;;;;;1.84;100.00;98295.30;109274;1251;58970;-60
2023/11/24 02:15:15;;;;;;;15.60;10.60;;;;;;;1.85;100.00;98293.27;109252;1251;75268;-61
2023/11/24 02:17:43;;;;;;;16.50;11.20;;;;;;;1.85;100.00;98294.58;109486;1251;65864;-60
2023/11/24 02:20:11;;;;;;;16.50;11.40;;;;;;;1.86;100.00;98284.63;109259;1251;72502;-59
2023/11/24 02:22:41;;;;;;;17.80;12.40;;;;;;;1.86;100.00;98275.48;109263;1251;60090;-61
2023/11/24 02:25:10;;;;;;;17.10;11.60;;;;;;;1.88;100.00;98277.89;109217;1257;60009;-60
2023/11/24 02:27:38;;;;;;;17.20;11.10;;;;;;;1.88;100.00;98276.31;109293;1251;73390;-61
2023/11/24 02:30:06;;;;;;;16.60;11.50;;;;;;;1.89;100.00;98274.47;109439;1251;67039;-62
2023/11/24 02:32:34;;;;;;;16.90;11.40;;;;;;;1.90;100.00;98269.42;109268;1251;71215;-61
2023/11/24 02:35:04;;;;;;;18.40;11.70;;;;;;;1.90;100.00;98271.42;109240;1251;58989;-64
2023/11/24 02:37:32;;;;;;;16.70;10.40;;;;;;;1.91;100.00;98270.67;109255;1253;60099;-61
2023/11/24 02:40:00;;;;;;;19.30;11.30;;;;;;;1.91;100.00;98262.25;109484;1251;73528;-61
2023/11/24 02:42:27;;;;;;;16.00;11.60;;;;;;;1.92;100.00;98263.52;109390;1252;65686;-61
2023/11/24 02:44:55;;;;;;;16.30;11.50;;;;;;;1.92;100.00;98255.27;109425;1254;72741;-64
2023/11/24 02:47:23;;;;;;;14.60;10.10;;;;;;;1.92;100.00;98253.17;109422;1252;60870;-62
2023/11/24 02:49:51;;;;;;;15.80;10.10;;;;;;;1.92;100.00;98244.67;109449;1251;58913;-63
2023/11/24 02:52:18;;;;;;;18.50;11.20;;;;;;;1.94;100.00;98233.64;109420;1251;74649;-63
2023/11/24 02:54:46;;;;;;;19.20;11.80;;;;;;;1.96;100.00;98231.91;109412;1256;66579;-63
2023/11/24 02:57:14;;;;;;;17.60;11.90;;;;;;;1.97;100.00;98220.95;109363;1251;71940;-63
2023/11/24 02:59:41;;;;;;;18.40;11.80;;;;;;;1.98;100.00;98220.21;109424;1251;60954;-63
2023/11/24 03:02:09;;;;;;;17.80;11.30;;;;;;;1.99;100.00;98214.92;109409;1251;60422;-64
2023/11/24 03:04:37;;;;;;;17.80;11.70;;;;;;;2.00;100.00;98211.77;109395;1251;73607;-64
2023/11/24 03:07:05;;;;;;;17.30;12.10;;;;;;;2.01;100.00;98208.52;109430;1251;66236;-65
2023/11/24 03:09:33;;;;;;;19.50;11.50;;;;;;;2.03;100.00;98201.10;109436;1251;71529;-65
2023/11/24 03:12:02;;;;;;;17.70;11.20;;;;;;;2.05;100.00;98198.16;109419;1251;59697;-65
2023/11/24 03:14:30;;;;;;;18.80;12.50;;;;;;;2.06;100.00;98199.88;109386;1251;58940;-64
2023/11/24 03:16:57;;;;;;;19.30;12.70;;;;;;;2.08;100.00;98193.16;109410;1251;73562;-64
2023/11/24 03:19:27;;;;;;;22.20;12.90;;;;;;;2.09;100.00;98192.70;109425;1256;65735;-65
2023/11/24 03:21:54;;;;;;;19.10;11.90;;;;;;;2.10;100.00;98187.55;109385;1251;72706;-65
2023/11/24 03:24:22;;;;;;;19.60;12.00;;;;;;;2.11;100.00;98183.80;109277;1251;59794;-63
2023/11/24 03:26:50;;;;;;;20.40;13.30;;;;;;;2.13;100.00;98176.60;109363;1251;59441;-63
2023/11/24 03:29:17;;;;;;;19.20;11.90;;;;;;;2.14;100.00;98183.02;109454;1251;73591;-63
2023/11/24 03:31:46;;;;;;;20.30;11.50;;;;;;;2.15;100.00;98189.27;109414;1250;67408;-61
2023/11/24 03:34:13;;;;;;;20.30;12.10;;;;;;;2.14;100.00;98177.80;109295;1251;72707;-63
2023/11/24 03:36:41;;;;;;;19.60;12.70;;;;;;;2.15;100.00;98171.00;109337;1251;60958;-63
2023/11/24 03:39:13;;;;;;;20.90;12.90;;;;;;;2.15;100.00;98171.72;109488;1251;60099;-62
2023/11/24 03:41:41;;;;;;;19.40;12.40;;;;;;;2.16;100.00;98177.14;109479;1251;75399;-62
2023/11/24 03:44:09;;;;;;;20.60;13.50;;;;;;;2.15;100.00;98173.77;109446;1256;67033;-62
2023/11/24 03:46:37;;;;;;;18.50;12.00;;;;;;;2.15;100.00;98182.83;109455;1251;73302;-61
2023/11/24 03:49:04;;;;;;;21.70;12.60;;;;;;;2.16;100.00;98188.96;109431;1251;60938;-62
2023/11/24 03:51:33;;;;;;;20.50;12.70;;;;;;;2.16;100.00;98188.75;109458;1251;59131;-63
2023/11/24 03:54:00;;;;;;;20.60;12.60;;;;;;;2.16;100.00;98187.36;109425;1251;74952;-63
2023/11/24 03:56:28;;;;;;;17.60;11.90;;;;;;;2.17;100.00;98179.92;109418;1251;66487;-62
2023/11/24 03:58:56;;;;;;;18.20;11.70;;;;;;;2.17;100.00;98176.88;109446;1253;71509;-62
2023/11/24 04:01:24;;;;;;;20.50;12.20;;;;;;;2.17;100.00;98178.47;109440;1251;59654;-61
2023/11/24 04:03:54;;;;;;;17.70;11.50;;;;;;;2.18;100.00;98174.56;109496;1251;59157;-61
2023/11/24 04:06:22;;;;;;;19.50;11.70;;;;;;;2.21;100.00;98172.10;109368;1251;74674;-62
2023/11/24 04:08:51;;;;;;;19.10;12.60;;;;;;;2.22;100.00;98175.47;109439;1250;67570;-63
2023/11/24 04:11:19;;;;;;;17.60;11.60;;;;;;;2.22;100.00;98166.81;109313;1251;72733;-62
2023/11/24 04:13:46;;;;;;;21.20;12.80;;;;;;;2.23;100.00;98169.50;109423;1251;59764;-62
2023/11/24 04:16:14;;;;;;;18.10;12.30;;;;;;;2.23;100.00;98164.71;109411;1251;60124;-60
2023/11/24 04:18:42;;;;;;;18.80;11.40;;;;;;;2.23;100.00;98161.08;109419;1251;73393;-61
2023/11/24 04:21:10;;;;;;;21.80;12.90;;;;;;;2.23;100.00;98153.05;109472;1251;66962;-61
2023/11/24 04:23:38;;;;;;;18.80;12.00;;;;;;;2.22;100.00;98155.83;109440;1251;71471;-63
2023/11/24 04:26:06;;;;;;;19.20;11.70;;;;;;;2.21;100.00;98153.28;109392;1251;59026;-61
2023/11/24 04:28:35;;;;;;;20.80;12.70;;;;;;;2.19;100.00;98156.85;109475;1251;61343;-62
2023/11/24 04:31:02;;;;;;;22.40;12.70;;;;;;;2.18;100.00;98161.81;109444;1250;73704;-61
2023/11/24 04:33:30;;;;;;;17.80;11.20;;;;;;;2.17;100.00;98163.48;109473;1251;66949;-60
2023/11/24 04:35:58;;;;;;;19.50;11.20;;;;;;;2.16;100.00;98160.27;109414;1251;72724;-62
2023/11/24 04:38:25;;;;;;;19.00;11.20;;;;;;;2.16;100.00;98154.11;109396;1252;60996;-61
2023/11/24 04:40:53;;;;;;;20.10;12.10;;;;;;;2.16;100.00;98144.21;109460;1251;60137;-61
2023/11/24 04:43:24;;;;;;;22.10;12.70;;;;;;;2.16;100.00;98139.52;109445;1250;73916;-60
2023/11/24 04:45:51;;;;;;;18.10;11.50;;;;;;;2.17;100.00;98136.52;109423;1251;65982;-60
2023/11/24 04:48:20;;;;;;;18.90;11.70;;;;;;;2.20;100.00;98138.20;109422;1251;72800;-59
2023/11/24 04:50:47;;;;;;;18.40;11.00;;;;;;;2.23;100.00;98138.73;109392;1251;59624;-60
2023/11/24 04:53:15;;;;;;;16.70;10.80;;;;;;;2.26;100.00;98131.96;109424;1251;58966;-60
2023/11/24 04:55:43;;;;;;;18.60;11.40;;;;;;;2.28;100.00;98122.59;109424;1251;73135;-60
2023/11/24 04:58:10;;;;;;;19.60;11.50;;;;;;;2.30;100.00;98117.89;109379;1251;66753;-60
2023/11/24 05:00:38;;;;;;;18.30;12.00;;;;;;;2.31;100.00;98113.33;109435;1251;71763;-60
2023/11/24 05:03:07;;;;;;;18.70;10.90;;;;;;;2.33;100.00;98108.59;109421;1251;59662;-59
2023/11/24 05:05:35;;;;;;;16.80;11.20;;;;;;;2.36;100.00;98111.67;109447;1251;60233;-59
2023/11/24 05:08:03;;;;;;;17.30;11.30;;;;;;;2.38;100.00;98116.94;109346;1251;74805;-60
2023/11/24 05:10:31;;;;;;;17.00;11.60;;;;;;;2.39;100.00;98114.67;109439;1251;65777;-59
2023/11/24 05:12:59;;;;;;;16.20;10.70;;;;;;;2.41;100.00;98108.03;109425;1253;72810;-62
2023/11/24 05:15:27;;;;;;;18.90;11.30;;;;;;;2.42;100.00;98110.73;109468;1251;59232;-62
2023/11/24 05:17:54;;;;;;;18.10;10.70;;;;;;;2.43;100.00;98114.40;109414;1251;58918;-61
2023/11/24 05:20:24;;;;;;;16.00;9.90;;;;;;;2.44;100.00;98120.14;109438;1251;74636;-61
2023/11/24 05:22:51;;;;;;;16.30;10.50;;;;;;;2.45;100.00;98126.58;109443;1250;65697;-62
2023/11/24 05:25:19;;;;;;;15.00;10.20;;;;;;;2.46;100.00;98125.76;109393;1251;72772;-62
2023/11/24 05:27:46;;;;;;;17.10;10.40;;;;;;;2.47;100.00;98134.69;109370;1251;60945;-60
2023/11/24 05:30:15;;;;;;;16.80;10.50;;;;;;;2.48;100.00;98137.22;109425;1251;60022;-61
2023/11/24 05:32:44;;;;;;;17.10;10.50;;;;;;;2.48;100.00;98139.05;109423;1251;74611;-59
2023/11/24 05:35:12;;;;;;;18.60;10.70;;;;;;;2.48;100.00;98137.30;109409;1251;67036;-60
2023/11/24 05:37:40;;;;;;;16.80;10.10;;;;;;;2.49;100.00;98131.52;109362;1251;72683;-62
2023/11/24 05:40:09;;;;;;;16.80;10.70;;;;;;;2.51;100.00;98121.12;109362;1254;59123;-59
2023/11/24 05:42:37;;;;;;;17.50;10.50;;;;;;;2.52;100.00;98117.88;109391;1251;60085;-59
2023/11/24 05:45:05;;;;;;;20.40;10.70;;;;;;;2.52;100.00;98108.73;109388;1250;74743;-59
2023/11/24 05:47:33;;;;;;;16.10;10.50;;;;;;;2.52;100.00;98101.89;109399;1251;66331;-60
2023/11/24 05:50:05;;;;;;;15.30;9.30;;;;;;;2.54;100.00;98099.63;109068;1252;419667;-59
2023/11/24 05:52:33;;;;;;;14.80;9.90;;;;;;;2.55;100.00;98099.83;109412;1251;59852;-59
2023/11/24 05:55:01;;;;;;;18.10;10.00;;;;;;;2.57;100.00;98098.41;109446;1251;60129;-58
2023/11/24 05:57:29;;;;;;;19.70;10.30;;;;;;;2.59;100.00;98094.98;109377;1251;74792;-62
2023/11/24 05:59:57;;;;;;;15.00;10.10;;;;;;;2.63;100.00;98100.20;109393;1251;65708;-59
2023/11/24 06:02:24;;;;;;;17.50;9.20;;;;;;;2.66;100.00;98101.51;109351;1251;72748;-59
2023/11/24 06:04:52;;;;;;;16.00;9.40;;;;;;;2.70;100.00;98093.73;109485;1251;61073;-59
2023/11/24 06:07:22;;;;;;;15.00;9.10;;;;;;;2.73;100.00;98090.14;109355;1251;58917;-61
2023/11/24 06:09:50;;;;;;;14.50;9.50;;;;;;;2.75;100.00;98100.70;109417;1250;74661;-59
2023/11/24 06:12:18;;;;;;;13.90;9.30;;;;;;;2.77;100.00;98097.54;109417;1251;65628;-59
2023/11/24 06:14:47;;;;;;;15.30;8.50;;;;;;;2.78;100.00;98095.83;109391;1251;71321;-59
2023/11/24 06:17:14;;;;;;;14.60;9.50;;;;;;;2.80;100.00;98084.66;109381;1250;59681;-63
2023/11/24 06:19:42;;;;;;;17.00;9.40;;;;;;;2.82;100.00;98081.02;109375;1251;60282;-59
2023/11/24 06:22:09;;;;;;;16.50;9.80;;;;;;;2.85;100.00;98080.20;109416;1251;74756;-59
2023/11/24 06:24:37;;;;;;;16.20;9.70;;;;;;;2.87;100.00;98069.30;109426;1250;66220;-59
2023/11/24 06:27:04;;;;;;;20.50;10.40;;;;;;;2.91;100.00;98069.31;109302;1251;71434;-59
2023/11/24 06:29:32;;;;;;;17.40;9.90;;;;;;;2.93;100.00;98067.35;109344;1251;59717;-62
2023/11/24 06:32:00;;;;;;;17.00;9.60;;;;;;;2.97;100.00;98061.76;109437;1251;60124;-58
2023/11/24 06:34:28;;;;;;;15.50;8.50;;;;;;;3.01;100.00;98057.62;109467;1251;74727;-59
2023/11/24 06:36:56;;;;;;;14.00;8.80;;;;;;;3.04;100.00;98058.20;109398;1250;64642;-58
2023/11/24 06:39:23;;;;;;;14.10;8.70;;;;;;;3.07;100.00;98056.05;109348;1254;71673;-62
2023/11/24 06:41:53;;;;;;;15.00;8.50;;;;;;;3.10;100.00;98055.66;109411;1251;62088;-59
2023/11/24 06:44:22;;;;;;;15.70;8.50;;;;;;;3.15;100.00;98053.39;109460;1251;60036;-59
2023/11/24 06:46:50;;;;;;;13.80;7.80;;;;;;;3.22;100.00;98058.18;109412;1251;75472;-59
2023/11/24 06:49:18;;;;;;;12.90;8.60;;;;;;;3.28;100.00;98057.74;109396;1251;66937;-63
2023/11/24 06:51:48;;;;;;;14.50;8.20;;;;;;;3.31;100.00;98047.30;109419;1251;71444;-59
2023/11/24 06:54:15;;;;;;;13.40;8.40;;;;;;;3.32;100.00;98037.16;109358;1251;59580;-59
2023/11/24 06:56:43;;;;;;;11.50;7.50;;;;;;;3.36;100.00;98051.84;109389;1251;60089;-59
2023/11/24 06:59:11;;;;;;;13.00;7.60;;;;;;;3.38;100.00;98066.36;109401;1250;74662;-60
2023/11/24 07:01:39;;;;;;;13.80;8.70;;;;;;;3.38;100.00;98032.84;109397;1251;67384;-59
2023/11/24 07:04:07;;;;;;;10.60;6.80;;;;;;;3.38;100.00;98018.70;109368;1252;70343;-59
2023/11/24 07:06:35;;;;;;;14.60;8.10;;;;;;;3.40;100.00;98026.69;109374;1251;59967;-59
2023/11/24 07:09:03;;;;;;;14.60;7.70;;;;;;;3.43;100.00;98022.27;109446;1250;60109;-59
2023/11/24 07:11:31;;;;;;;12.30;7.30;;;;;;;3.45;100.00;98025.94;109404;1250;75203;-59
2023/11/24 07:13:58;;;;;;;13.10;7.90;;;;;;;3.48;100.00;98020.23;109412;1251;67072;-59
2023/11/24 07:16:26;;;;;;;13.80;7.80;;;;;;;3.53;100.00;98011.77;109428;1251;71749;-59
2023/11/24 07:18:54;;;;;;;13.00;8.30;;;;;;;3.60;100.00;98001.02;109421;1252;60962;-59
2023/11/24 07:21:21;;;;;;;15.90;8.20;;;;;;;3.70;100.00;98002.59;109322;1250;60211;-59
2023/11/24 07:23:49;;;;;;;12.50;7.00;;;;;;;3.78;100.00;97998.17;109459;1250;73527;-58
2023/11/24 07:26:17;;;;;;;14.00;6.90;;;;;;;3.81;100.00;98005.60;109418;1252;65979;-58
2023/11/24 07:28:45;;;;;;;11.50;6.90;;;;;;;3.81;100.00;98004.65;109383;1251;71797;-59
2023/11/24 07:31:17;;;;;;;11.50;6.70;;;;;;;3.80;100.00;98001.84;109331;1251;60863;-62
2023/11/24 07:33:48;;;;;;;12.10;7.20;;;;;;;3.78;100.00;97991.39;109479;1251;58923;-59
2023/11/24 07:36:18;;;;;;;12.40;8.00;;;;;;;3.77;100.00;97991.16;109448;1250;74728;-59
2023/11/24 07:38:47;;;;;;;16.00;8.30;;;;;;;3.77;100.00;97990.48;109461;1251;66230;-64
2023/11/24 07:41:15;;;;;;;11.60;6.90;;;;;;;3.78;100.00;97989.64;109422;1250;72999;-58
2023/11/24 07:43:43;;;;;;;11.40;7.00;;;;;;;3.79;100.00;97985.93;109339;1251;60949;-59
2023/11/24 07:46:11;;;;;;;11.20;7.20;;;;;;;3.83;100.00;97983.40;109406;1253;58926;-59
2023/11/24 07:48:40;;;;;;;10.90;6.60;;;;;;;3.87;100.00;97983.02;109470;1250;74747;-62
2023/11/24 07:51:08;;;;;;;10.20;6.00;;;;;;;3.94;100.00;97981.16;109241;1251;65985;-60
2023/11/24 07:53:36;;;;;;;12.10;6.70;;;;;;;3.99;100.00;97982.67;109355;1251;72779;-60
2023/11/24 07:56:06;;;;;;;10.90;6.80;;;;;;;4.03;100.00;97980.15;109456;1251;60923;-59
2023/11/24 07:58:34;;;;;;;11.60;6.10;;;;;;;4.05;100.00;97977.13;109437;1251;59029;-61
2023/11/24 08:01:02;;;;;;;10.60;6.20;;;;;;;4.07;100.00;97972.92;109348;1250;73969;-60
2023/11/24 08:03:34;;;;;;;11.10;6.40;;;;;;;4.11;100.00;97961.91;109399;1251;66940;-60
2023/11/24 08:06:07;;;;;;;10.50;6.90;;;;;;;4.16;100.00;97949.41;109425;1251;72797;-59
2023/11/24 08:08:35;;;;;;;11.20;6.60;;;;;;;4.25;100.00;97939.86;109371;1251;59691;-64
2023/11/24 08:11:03;;;;;;;10.90;7.10;;;;;;;4.32;100.00;97942.31;109437;1251;59994;-59
2023/11/24 08:13:30;;;;;;;10.70;7.00;;;;;;;4.41;100.00;97928.33;109396;1251;74666;-60
2023/11/24 08:15:59;;;;;;;9.50;5.80;;;;;;;4.48;100.00;97921.34;109424;1251;65532;-60
2023/11/24 08:18:27;;;;;;;10.10;6.40;;;;;;;4.57;100.00;97906.60;109412;1251;71518;-61
2023/11/24 08:20:54;;;;;;;9.50;5.60;;;;;;;4.66;100.00;97911.27;109383;1251;58985;-59
2023/11/24 08:23:22;;;;;;;9.70;5.60;;;;;;;4.75;100.00;97910.61;109447;1250;58908;-59
2023/11/24 08:25:51;;;;;;;11.60;6.20;;;;;;;4.82;100.00;97903.43;109414;1251;74662;-60
2023/11/24 08:28:19;;;;;;;10.70;6.60;;;;;;;4.85;100.00;97899.89;109410;1251;67057;-60
2023/11/24 08:30:48;;;;;;;9.50;6.80;;;;;;;4.88;100.00;97893.27;109330;1251;74376;-60
2023/11/24 08:33:16;;;;;;;10.60;7.20;;;;;;;4.90;100.00;97884.04;109399;1251;62199;-58
2023/11/24 08:35:44;;;;;;;12.60;6.60;;;;;;;4.92;100.00;97885.77;109425;1251;61111;-59
2023/11/24 08:38:12;;;;;;;10.00;6.50;;;;;;;4.98;100.00;97886.53;109419;1252;74730;-57
2023/11/24 08:40:42;;;;;;;12.20;7.00;;;;;;;5.05;100.00;97884.92;109359;1251;67022;-59
2023/11/24 08:43:10;;;;;;;11.20;6.90;;;;;;;5.12;100.00;97879.77;109447;1251;70783;-59
2023/11/24 08:45:38;;;;;;;10.70;6.40;;;;;;;5.19;100.00;97868.56;109428;1251;59703;-59
2023/11/24 08:48:05;;;;;;;12.40;7.00;;;;;;;5.22;100.00;97868.15;109396;1251;59097;-60
2023/11/24 08:50:33;;;;;;;11.60;6.80;;;;;;;5.25;100.00;97863.40;109399;1250;74858;-64
2023/11/24 08:53:01;;;;;;;9.40;6.00;;;;;;;5.30;100.00;97861.55;109391;1250;69005;-58
2023/11/24 08:55:30;;;;;;;10.50;6.20;;;;;;;5.37;100.00;97860.12;109383;1250;72802;-60
2023/11/24 08:58:00;;;;;;;9.30;5.90;;;;;;;5.44;100.00;97858.33;109367;1250;59698;-59
2023/11/24 09:00:29;;;;;;;9.10;5.70;;;;;;;5.50;100.00;97865.84;109370;1250;63271;-62
2023/11/24 09:02:58;;;;;;;12.10;6.80;;;;;;;5.57;100.00;97864.77;109413;1251;74949;-60
2023/11/24 09:05:26;;;;;;;10.40;5.80;;;;;;;5.63;100.00;97868.93;109421;1250;67066;-60
2023/11/24 09:07:54;;;;;;;9.20;6.10;;;;;;;5.65;100.00;97873.19;109400;1251;71468;-59
2023/11/24 09:10:22;;;;;;;12.90;8.10;;;;;;;5.61;100.00;97872.77;109362;1251;61239;-60
2023/11/24 09:12:50;;;;;;;9.90;6.70;;;;;;;5.56;100.00;97867.00;109456;1251;59016;-60
2023/11/24 09:15:18;;;;;;;11.60;7.00;;;;;;;5.49;100.00;97863.27;109335;1251;77443;-58
2023/11/24 09:17:46;;;;;;;11.20;6.70;;;;;;;5.43;100.00;97862.02;109430;1251;69369;-59
2023/11/24 09:20:16;;;;;;;10.20;6.30;;;;;;;5.37;100.00;97866.13;109380;1251;71468;-59
2023/11/24 09:22:45;;;;;;;12.10;7.20;;;;;;;5.32;100.00;97863.33;109410;1251;59654;-58
2023/11/24 09:25:15;;;;;;;10.30;6.90;;;;;;;5.29;100.00;97867.88;109439;1251;58913;-59
2023/11/24 09:27:43;;;;;;;12.90;7.30;;;;;;;5.27;100.00;97865.70;109454;1251;74757;-58
2023/11/24 09:30:11;;;;;;;18.70;8.00;;;;;;;5.26;100.00;97863.31;109255;1250;67308;-59
2023/11/24 09:32:41;;;;;;;12.70;6.90;;;;;;;5.26;100.00;97866.89;109406;1250;71130;-60
2023/11/24 09:35:10;;;;;;;11.30;7.30;;;;;;;5.29;100.00;97870.30;109454;1251;61466;-59
2023/11/24 09:37:38;;;;;;;10.90;6.60;;;;;;;5.33;100.00;97873.21;109395;1250;60262;-64
2023/11/24 09:40:12;;;;;;;11.70;7.40;;;;;;;5.34;100.00;97880.80;109347;1251;74761;-58
2023/11/24 09:42:44;;;;;;;11.10;6.90;;;;;;;5.31;100.00;97881.26;109403;1250;67716;-58
2023/11/24 09:45:17;;;;;;;13.20;7.80;;;;;;;5.26;100.00;97886.77;109333;1251;71479;-58
2023/11/24 09:47:52;;;;;;;11.50;7.80;;;;;;;5.19;100.00;97888.31;109354;1252;59448;-58
2023/11/24 09:50:24;;;;;;;14.90;8.40;;;;;;;5.15;100.00;97888.57;109391;1251;63013;-59
2023/11/24 09:52:57;;;;;;;12.20;7.40;;;;;;;5.13;100.00;97890.48;109410;1251;77389;-58
2023/11/24 09:55:26;;;;;;;14.10;7.60;;;;;;;5.13;100.00;97896.92;109411;1253;64625;-58
2023/11/24 09:57:55;;;;;;;12.30;7.40;;;;;;;5.10;100.00;97900.71;109387;1251;75119;-57
2023/11/24 10:00:25;;;;;;;12.20;7.10;;;;;;;5.10;100.00;97896.56;109365;1251;59559;-58
2023/11/24 10:02:56;;;;;;;10.50;6.70;;;;;;;5.14;100.00;97899.54;109276;1251;62965;-62
2023/11/24 10:05:26;;;;;;;12.60;7.40;;;;;;;5.20;100.00;97887.75;109474;1251;76687;-60
2023/11/24 10:07:54;;;;;;;12.20;6.90;;;;;;;5.28;100.00;97894.02;109416;1251;67092;-61
2023/11/24 10:10:22;;;;;;;16.40;8.30;;;;;;;5.37;100.00;97897.11;109292;1251;76145;-61
2023/11/24 10:12:52;;;;;;;11.10;7.40;;;;;;;5.44;100.00;97899.63;109393;1251;61507;-68
2023/11/24 10:15:23;;;;;;;12.80;7.70;;;;;;;5.50;100.00;97900.04;109403;1251;60877;-57
2023/11/24 10:17:50;;;;;;;13.40;8.30;;;;;;;5.53;100.00;97893.41;109522;1251;73374;-58
2023/11/24 10:20:18;;;;;;;14.00;8.70;;;;;;;5.51;100.00;97899.04;109390;1251;68974;-61
2023/11/24 10:22:49;;;;;;;13.70;8.80;;;;;;;5.47;100.00;97898.86;109355;1252;75322;-61
2023/11/24 10:25:20;;;;;;;11.30;7.30;;;;;;;5.46;100.00;97899.30;109348;1251;63317;-60
2023/11/24 10:27:48;;;;;;;14.40;8.00;;;;;;;5.46;100.00;97906.10;109375;1251;59157;-59
2023/11/24 10:30:19;;;;;;;11.40;7.50;;;;;;;5.43;100.00;97901.86;109394;1253;74832;-59
2023/11/24 10:32:47;;;;;;;12.10;8.00;;;;;;;5.38;100.00;97902.84;109451;1251;67065;-59
2023/11/24 10:35:15;;;;;;;11.80;8.00;;;;;;;5.34;100.00;97896.30;109395;1250;71365;-60
2023/11/24 10:37:44;;;;;;;11.70;7.40;;;;;;;5.32;100.00;97893.61;109368;1251;63033;-59
2023/11/24 10:40:14;;;;;;;11.80;8.00;;;;;;;5.29;100.00;97891.76;109404;1251;59471;-60
2023/11/24 10:42:47;;;;;;;14.10;8.00;;;;;;;5.26;100.00;97886.58;109375;1251;78082;-66
2023/11/24 10:45:19;;;;;;;12.50;7.80;;;;;;;5.24;100.00;97873.75;109509;1251;65628;-61
2023/11/24 10:47:59;;;;;;;14.40;8.90;;;;;;;5.25;100.00;97884.31;109378;1251;72126;-61
2023/11/24 10:50:27;;;;;;;13.00;8.00;;;;;;;5.25;100.00;97887.84;109256;1251;61891;-64
2023/11/24 10:53:14;;;;;;;12.70;8.80;;;;;;;5.25;100.00;97888.87;109261;1251;60053;-60
2023/11/24 10:55:42;;;;;;;13.50;8.70;;;;;;;5.24;100.00;97894.97;109412;1255;74712;-60
2023/11/24 10:58:10;;;;;;;12.00;8.20;;;;;;;5.21;100.00;97895.80;109342;1253;68041;-66
2023/11/24 11:00:38;;;;;;;12.60;8.10;;;;;;;5.19;100.00;97889.10;109435;1251;73938;-61
2023/11/24 11:03:06;;;;;;;13.90;8.10;;;;;;;5.17;100.00;97889.16;109383;1251;60528;-61
2023/11/24 11:06:15;;;;;;;14.30;8.70;;;;;;;5.17;100.00;97893.14;109407;1251;58866;-60
2023/11/24 11:08:56;;;;;;;15.40;8.40;;;;;;;5.18;100.00;97889.54;109165;1251;78034;-62
2023/11/24 11:11:39;;;;;;;14.10;8.70;;;;;;;5.18;100.00;97898.73;109435;1250;67399;-61
2023/11/24 11:14:07;;;;;;;11.90;8.50;;;;;;;5.15;100.00;97899.57;109406;1251;71144;-61
2023/11/24 11:16:37;;;;;;;13.70;9.20;;;;;;;5.12;100.00;97902.73;109364;1251;62487;-61
2023/11/24 11:19:30;;;;;;;13.50;8.70;;;;;;;5.09;100.00;97904.53;109400;1251;60134;-67
2023/11/24 11:22:00;;;;;;;15.30;9.50;;;;;;;5.06;100.00;97898.17;109399;1251;74784;-61